createdAt,value
2017-01-17T00:00:30.011Z,0
2017-01-17T00:03:01.043Z,0
2017-01-17T00:03:42.795Z,0
2017-01-17T00:04:24.393Z,0
2017-01-17T00:06:45.056Z,0
2017-01-17T00:08:44.997Z,0
2017-01-17T00:09:26.727Z,0
2017-01-17T00:10:08.434Z,0
2017-01-17T00:10:50.106Z,0
2017-01-17T00:11:31.779Z,0
2017-01-17T00:13:31.839Z,0
2017-01-17T00:14:13.486Z,0
2017-01-17T00:14:55.182Z,0
2017-01-17T00:15:36.908Z,0
2017-01-17T00:16:18.676Z,0
2017-01-17T00:17:00.306Z,0
2017-01-17T00:17:42.117Z,0
2017-01-17T00:20:02.819Z,0
2017-01-17T00:20:44.547Z,0
2017-01-17T00:21:26.227Z,0
2017-01-17T00:22:07.877Z,0
2017-01-17T00:22:49.462Z,0
2017-01-17T00:25:04.750Z,0
2017-01-17T00:25:46.488Z,0
2017-01-17T00:26:28.139Z,0
2017-01-17T00:27:09.900Z,0
2017-01-17T00:27:51.644Z,0
2017-01-17T00:30:22.744Z,0
2017-01-17T00:31:04.488Z,0
2017-01-17T00:31:46.136Z,0
2017-01-17T00:32:27.818Z,0
2017-01-17T00:33:09.542Z,0
2017-01-17T00:33:51.253Z,0
2017-01-17T00:34:33.019Z,0
2017-01-17T00:35:14.630Z,0
2017-01-17T00:37:51.191Z,0
2017-01-17T00:38:32.900Z,0
2017-01-17T00:39:14.635Z,0
2017-01-17T00:39:56.327Z,0
2017-01-17T00:40:38.104Z,0
2017-01-17T00:41:19.811Z,0
2017-01-17T00:42:01.547Z,0
2017-01-17T00:42:43.308Z,0
2017-01-17T00:43:25.026Z,0
2017-01-17T00:44:06.739Z,0
2017-01-17T00:44:48.473Z,0
2017-01-17T00:45:30.172Z,0
2017-01-17T00:48:01.215Z,0
2017-01-17T00:50:32.242Z,0
2017-01-17T00:51:13.775Z,0
2017-01-17T00:51:55.547Z,0
2017-01-17T00:54:31.998Z,0
2017-01-17T00:55:13.771Z,0
2017-01-17T00:55:55.393Z,0
2017-01-17T00:56:37.149Z,0
2017-01-17T00:59:08.256Z,0
2017-01-17T01:01:08.202Z,0
2017-01-17T01:01:49.862Z,0
2017-01-17T01:02:31.567Z,0
2017-01-17T01:04:46.810Z,0
2017-01-17T01:05:28.037Z,0
2017-01-17T01:06:09.811Z,0
2017-01-17T01:08:46.104Z,0
2017-01-17T01:11:06.603Z,0
2017-01-17T01:11:48.165Z,0
2017-01-17T01:12:29.957Z,0
2017-01-17T01:13:11.550Z,0
2017-01-17T01:15:11.535Z,0
2017-01-17T01:17:47.928Z,0
2017-01-17T01:18:29.673Z,0
2017-01-17T01:19:11.427Z,0
2017-01-17T01:19:53.129Z,0
2017-01-17T01:20:34.823Z,0
2017-01-17T01:21:16.574Z,0
2017-01-17T01:21:58.301Z,0
2017-01-17T01:22:40.059Z,0
2017-01-17T01:23:21.804Z,0
2017-01-17T01:24:03.571Z,0
2017-01-17T01:24:45.193Z,0
2017-01-17T01:25:26.907Z,0
2017-01-17T01:26:08.698Z,0
2017-01-17T01:26:50.369Z,0
2017-01-17T01:27:32.088Z,0
2017-01-17T01:29:52.707Z,0
2017-01-17T01:30:34.501Z,0
2017-01-17T01:31:16.164Z,0
2017-01-17T01:31:57.876Z,0
2017-01-17T01:32:39.502Z,0
2017-01-17T01:33:21.124Z,0
2017-01-17T01:34:02.772Z,0
2017-01-17T01:36:39.111Z,0
2017-01-17T01:38:59.913Z,0
2017-01-17T01:39:41.653Z,0
2017-01-17T01:40:23.467Z,0
2017-01-17T01:41:05.217Z,0
2017-01-17T01:41:46.962Z,0
2017-01-17T01:42:28.537Z,0
2017-01-17T01:44:49.159Z,0
2017-01-17T01:45:30.722Z,0
2017-01-17T01:46:12.489Z,0
2017-01-17T01:46:54.247Z,0
2017-01-17T01:47:35.913Z,0
2017-01-17T01:48:17.689Z,0
2017-01-17T01:50:54.215Z,0
2017-01-17T01:53:25.383Z,0
2017-01-17T01:54:07.095Z,0
2017-01-17T01:54:48.836Z,0
2017-01-17T01:55:30.585Z,0
2017-01-17T01:58:06.961Z,0
2017-01-17T01:58:48.537Z,0
2017-01-17T02:00:47.663Z,0
2017-01-17T02:01:28.200Z,0
2017-01-17T02:02:08.731Z,0
2017-01-17T02:02:49.261Z,0
2017-01-17T02:03:29.786Z,0
2017-01-17T02:04:10.312Z,0
2017-01-17T02:04:50.843Z,0
2017-01-17T02:05:31.367Z,0
2017-01-17T02:06:11.923Z,0
2017-01-17T02:06:52.435Z,0
2017-01-17T02:07:32.961Z,0
2017-01-17T02:08:13.488Z,0
2017-01-17T02:08:54.018Z,0
2017-01-17T02:09:34.539Z,0
2017-01-17T02:10:15.069Z,0
2017-01-17T02:10:55.596Z,0
2017-01-17T02:11:36.121Z,0
2017-01-17T02:12:16.640Z,0
2017-01-17T02:12:57.166Z,0
2017-01-17T02:13:37.698Z,0
2017-01-17T02:14:18.220Z,0
2017-01-17T02:14:58.743Z,0
2017-01-17T02:15:39.267Z,0
2017-01-17T02:16:19.797Z,0
2017-01-17T02:17:00.323Z,0
2017-01-17T02:17:40.844Z,0
2017-01-17T02:18:21.370Z,0
2017-01-17T02:19:01.907Z,0
2017-01-17T02:19:42.442Z,0
2017-01-17T02:20:22.972Z,0
2017-01-17T02:21:03.502Z,0
2017-01-17T02:21:44.027Z,0
2017-01-17T02:22:24.564Z,0
2017-01-17T02:23:05.094Z,0
2017-01-17T02:23:45.615Z,0
2017-01-17T02:24:26.132Z,0
2017-01-17T02:25:06.667Z,0
2017-01-17T02:25:47.198Z,0
2017-01-17T02:26:27.727Z,0
2017-01-17T02:27:08.256Z,0
2017-01-17T02:27:48.779Z,0
2017-01-17T02:28:29.313Z,0
2017-01-17T02:29:09.845Z,0
2017-01-17T02:29:50.376Z,0
2017-01-17T02:30:30.893Z,0
2017-01-17T02:31:11.421Z,0
2017-01-17T02:31:51.950Z,0
2017-01-17T02:32:32.477Z,0
2017-01-17T02:33:12.998Z,0
2017-01-17T02:33:53.518Z,0
2017-01-17T02:34:34.050Z,0
2017-01-17T02:35:14.578Z,0
2017-01-17T02:35:55.103Z,0
2017-01-17T02:36:35.628Z,0
2017-01-17T02:37:16.167Z,0
2017-01-17T02:37:56.699Z,0
2017-01-17T02:38:37.228Z,0
2017-01-17T02:39:17.756Z,0
2017-01-17T02:39:58.280Z,0
2017-01-17T02:40:38.810Z,0
2017-01-17T02:41:19.337Z,0
2017-01-17T02:41:59.864Z,0
2017-01-17T02:42:40.396Z,0
2017-01-17T02:43:20.925Z,0
2017-01-17T02:44:01.456Z,0
2017-01-17T02:44:41.984Z,0
2017-01-17T02:45:22.514Z,0
2017-01-17T02:46:03.048Z,0
2017-01-17T02:46:43.578Z,0
2017-01-17T02:47:24.110Z,0
2017-01-17T02:48:04.637Z,0
2017-01-17T02:48:45.157Z,0
2017-01-17T02:49:25.682Z,0
2017-01-17T02:50:06.312Z,0
2017-01-17T02:50:46.842Z,0
2017-01-17T02:51:27.369Z,0
2017-01-17T02:52:07.897Z,0
2017-01-17T02:52:48.587Z,0
2017-01-17T02:53:29.112Z,0
2017-01-17T02:54:09.640Z,0
2017-01-17T02:54:50.167Z,0
2017-01-17T02:55:30.698Z,0
2017-01-17T02:56:11.220Z,0
2017-01-17T02:56:51.745Z,0
2017-01-17T02:57:32.282Z,0
2017-01-17T02:58:12.815Z,0
2017-01-17T02:58:53.347Z,0
2017-01-17T02:59:33.879Z,0
2017-01-17T03:00:14.396Z,0
2017-01-17T03:00:54.928Z,0
2017-01-17T03:01:35.461Z,0
2017-01-17T03:02:15.987Z,0
2017-01-17T03:02:56.518Z,0
2017-01-17T03:03:37.045Z,0
2017-01-17T03:04:17.578Z,0
2017-01-17T03:04:58.102Z,0
2017-01-17T03:05:38.624Z,0
2017-01-17T03:06:19.153Z,0
2017-01-17T03:06:59.688Z,0
2017-01-17T03:07:40.220Z,0
2017-01-17T03:08:20.750Z,0
2017-01-17T03:09:01.276Z,0
2017-01-17T03:09:41.802Z,0
2017-01-17T03:10:22.341Z,0
2017-01-17T03:11:02.871Z,0
2017-01-17T03:11:43.402Z,0
2017-01-17T03:12:23.927Z,0
2017-01-17T03:13:04.452Z,0
2017-01-17T03:13:44.984Z,0
2017-01-17T03:14:25.508Z,0
2017-01-17T03:15:06.030Z,0
2017-01-17T03:15:46.553Z,0
2017-01-17T03:16:27.087Z,0
2017-01-17T03:17:07.610Z,0
2017-01-17T03:17:48.132Z,0
2017-01-17T03:18:28.656Z,0
2017-01-17T03:19:09.194Z,0
2017-01-17T03:19:49.729Z,0
2017-01-17T03:20:30.257Z,0
2017-01-17T03:21:10.780Z,0
2017-01-17T03:21:51.306Z,0
2017-01-17T03:22:31.835Z,0
2017-01-17T03:23:12.362Z,0
2017-01-17T03:23:52.897Z,0
2017-01-17T03:24:33.426Z,0
2017-01-17T03:25:13.954Z,0
2017-01-17T03:25:54.480Z,0
2017-01-17T03:26:35.013Z,0
2017-01-17T03:27:15.543Z,0
2017-01-17T03:27:56.075Z,0
2017-01-17T03:28:36.610Z,0
2017-01-17T03:29:17.141Z,0
2017-01-17T03:29:57.670Z,0
2017-01-17T03:30:38.196Z,0
2017-01-17T03:31:18.734Z,0
2017-01-17T03:31:59.262Z,0
2017-01-17T03:32:39.788Z,0
2017-01-17T03:33:20.321Z,0
2017-01-17T03:34:00.856Z,0
2017-01-17T03:34:41.383Z,0
2017-01-17T03:35:21.911Z,0
2017-01-17T03:36:02.442Z,0
2017-01-17T03:36:42.969Z,0
2017-01-17T03:37:23.502Z,0
2017-01-17T03:38:04.027Z,0
2017-01-17T03:38:44.558Z,0
2017-01-17T03:39:25.080Z,0
2017-01-17T03:40:05.615Z,0
2017-01-17T03:40:46.135Z,0
2017-01-17T03:41:26.658Z,0
2017-01-17T03:42:07.187Z,0
2017-01-17T03:42:47.706Z,0
2017-01-17T03:43:28.245Z,0
2017-01-17T03:44:08.771Z,0
2017-01-17T03:44:49.300Z,0
2017-01-17T03:45:29.824Z,0
2017-01-17T03:46:10.353Z,0
2017-01-17T03:46:50.881Z,0
2017-01-17T03:47:31.412Z,0
2017-01-17T03:48:11.939Z,0
2017-01-17T03:48:53.102Z,0
2017-01-17T03:49:33.635Z,0
2017-01-17T03:50:14.177Z,0
2017-01-17T03:50:54.692Z,0
2017-01-17T03:51:35.227Z,0
2017-01-17T03:52:15.758Z,0
2017-01-17T03:52:56.289Z,0
2017-01-17T03:53:36.816Z,0
2017-01-17T03:54:17.357Z,0
2017-01-17T03:54:57.885Z,0
2017-01-17T03:55:38.408Z,0
2017-01-17T03:56:18.946Z,0
2017-01-17T03:56:59.474Z,0
2017-01-17T03:57:40.012Z,0
2017-01-17T03:58:20.540Z,0
2017-01-17T03:59:01.059Z,0
2017-01-17T03:59:41.597Z,0
2017-01-17T04:00:22.130Z,0
2017-01-17T04:01:02.659Z,0
2017-01-17T04:01:43.186Z,0
2017-01-17T04:02:23.722Z,0
2017-01-17T04:03:04.246Z,0
2017-01-17T04:03:44.778Z,0
2017-01-17T04:04:25.299Z,0
2017-01-17T04:05:05.836Z,0
2017-01-17T04:05:46.370Z,0
2017-01-17T04:06:26.895Z,0
2017-01-17T04:07:07.425Z,0
2017-01-17T04:07:47.951Z,0
2017-01-17T04:08:28.488Z,0
2017-01-17T04:09:09.020Z,0
2017-01-17T04:09:49.552Z,0
2017-01-17T04:10:30.076Z,0
2017-01-17T04:11:10.605Z,0
2017-01-17T04:11:51.140Z,0
2017-01-17T04:12:31.670Z,0
2017-01-17T04:13:12.201Z,0
2017-01-17T04:13:52.728Z,0
2017-01-17T04:14:33.255Z,0
2017-01-17T04:15:13.790Z,0
2017-01-17T04:15:54.313Z,0
2017-01-17T04:16:34.857Z,0
2017-01-17T04:17:15.386Z,0
2017-01-17T04:17:55.918Z,0
2017-01-17T04:18:36.461Z,0
2017-01-17T04:19:17.000Z,0
2017-01-17T04:19:57.533Z,0
2017-01-17T04:20:38.066Z,0
2017-01-17T04:21:18.607Z,0
2017-01-17T04:21:59.136Z,0
2017-01-17T04:22:39.665Z,0
2017-01-17T04:23:20.197Z,0
2017-01-17T04:24:00.720Z,0
2017-01-17T04:24:41.246Z,0
2017-01-17T04:25:21.780Z,0
2017-01-17T04:26:02.316Z,0
2017-01-17T04:26:42.848Z,0
2017-01-17T04:27:23.379Z,0
2017-01-17T04:28:03.911Z,0
2017-01-17T04:28:44.433Z,0
2017-01-17T04:29:24.961Z,0
2017-01-17T04:30:05.500Z,0
2017-01-17T04:30:46.031Z,0
2017-01-17T04:31:26.564Z,0
2017-01-17T04:32:07.087Z,0
2017-01-17T04:32:47.617Z,0
2017-01-17T04:33:28.154Z,0
2017-01-17T04:34:08.687Z,0
2017-01-17T04:34:49.214Z,0
2017-01-17T04:35:29.729Z,0
2017-01-17T04:36:10.260Z,0
2017-01-17T04:36:50.793Z,0
2017-01-17T04:37:31.323Z,0
2017-01-17T04:38:11.852Z,0
2017-01-17T04:40:46.380Z,0
2017-01-17T04:41:26.911Z,0
2017-01-17T04:42:07.433Z,0
2017-01-17T04:42:47.962Z,0
2017-01-17T04:43:28.480Z,0
2017-01-17T04:44:09.007Z,0
2017-01-17T04:44:49.531Z,0
2017-01-17T04:45:30.063Z,0
2017-01-17T04:46:10.595Z,0
2017-01-17T04:46:51.155Z,0
2017-01-17T04:47:31.744Z,0
2017-01-17T04:48:12.695Z,0
2017-01-17T04:48:53.232Z,0
2017-01-17T04:49:33.762Z,0
2017-01-17T04:50:14.291Z,0
2017-01-17T04:50:54.811Z,0
2017-01-17T04:51:35.347Z,0
2017-01-17T04:52:15.905Z,0
2017-01-17T04:52:56.463Z,0
2017-01-17T04:53:37.000Z,0
2017-01-17T04:54:17.536Z,0
2017-01-17T04:54:58.065Z,0
2017-01-17T04:55:38.595Z,0
2017-01-17T04:56:19.131Z,0
2017-01-17T04:56:59.660Z,0
2017-01-17T04:57:40.186Z,0
2017-01-17T04:58:20.717Z,0
2017-01-17T04:59:01.256Z,0
2017-01-17T04:59:42.067Z,0
2017-01-17T05:00:22.618Z,0
2017-01-17T05:01:03.162Z,0
2017-01-17T05:01:43.695Z,0
2017-01-17T05:02:24.267Z,0
2017-01-17T05:03:04.796Z,0
2017-01-17T05:03:45.329Z,0
2017-01-17T05:04:25.862Z,0
2017-01-17T05:05:06.390Z,0
2017-01-17T05:05:46.969Z,0
2017-01-17T05:06:27.502Z,0
2017-01-17T05:07:08.033Z,0
2017-01-17T05:07:48.568Z,0
2017-01-17T05:08:29.105Z,0
2017-01-17T05:09:09.633Z,0
2017-01-17T05:09:50.163Z,0
2017-01-17T05:10:30.694Z,0
2017-01-17T05:11:11.225Z,0
2017-01-17T05:11:51.757Z,0
2017-01-17T05:12:32.287Z,0
2017-01-17T05:13:12.816Z,0
2017-01-17T05:13:53.434Z,0
2017-01-17T05:14:33.966Z,0
2017-01-17T05:15:14.490Z,0
2017-01-17T05:15:55.019Z,0
2017-01-17T05:16:35.551Z,0
2017-01-17T05:17:16.086Z,0
2017-01-17T05:17:56.619Z,0
2017-01-17T05:18:37.142Z,0
2017-01-17T05:19:17.661Z,0
2017-01-17T05:19:58.191Z,0
2017-01-17T05:20:38.730Z,0
2017-01-17T05:21:19.264Z,0
2017-01-17T05:21:59.795Z,0
2017-01-17T05:22:40.328Z,0
2017-01-17T05:23:20.845Z,0
2017-01-17T05:24:01.381Z,0
2017-01-17T05:24:41.910Z,0
2017-01-17T05:25:22.445Z,0
2017-01-17T05:26:02.969Z,0
2017-01-17T05:26:43.496Z,0
2017-01-17T05:27:24.031Z,0
2017-01-17T05:28:04.554Z,0
2017-01-17T05:28:45.094Z,0
2017-01-17T05:29:25.620Z,0
2017-01-17T05:30:06.148Z,0
2017-01-17T05:30:46.689Z,0
2017-01-17T05:31:27.208Z,0
2017-01-17T05:32:07.748Z,0
2017-01-17T05:32:48.271Z,0
2017-01-17T05:33:28.798Z,0
2017-01-17T05:34:09.318Z,0
2017-01-17T05:34:49.836Z,0
2017-01-17T05:35:30.357Z,0
2017-01-17T05:36:10.889Z,0
2017-01-17T05:36:51.420Z,0
2017-01-17T05:37:31.952Z,0
2017-01-17T05:38:12.483Z,0
2017-01-17T05:38:53.001Z,0
2017-01-17T05:39:33.539Z,0
2017-01-17T05:40:14.074Z,0
2017-01-17T05:40:54.614Z,0
2017-01-17T05:41:35.155Z,0
2017-01-17T05:42:15.685Z,0
2017-01-17T05:42:56.202Z,0
2017-01-17T05:43:36.743Z,0
2017-01-17T05:44:17.264Z,0
2017-01-17T05:44:57.812Z,0
2017-01-17T05:45:38.341Z,0
2017-01-17T05:46:18.872Z,0
2017-01-17T05:46:59.405Z,0
2017-01-17T05:47:39.933Z,0
2017-01-17T05:48:20.472Z,0
2017-01-17T05:49:00.994Z,0
2017-01-17T05:49:41.522Z,0
2017-01-17T05:50:22.050Z,0
2017-01-17T05:51:02.585Z,0
2017-01-17T05:51:43.110Z,0
2017-01-17T05:52:23.640Z,0
2017-01-17T05:53:04.169Z,0
2017-01-17T05:53:44.703Z,0
2017-01-17T05:54:25.230Z,0
2017-01-17T05:55:05.762Z,0
2017-01-17T05:55:46.292Z,0
2017-01-17T05:56:26.813Z,0
2017-01-17T05:57:07.350Z,0
2017-01-17T05:57:47.880Z,0
2017-01-17T05:58:28.413Z,0
2017-01-17T05:59:08.935Z,0
2017-01-17T05:59:49.460Z,0
2017-01-17T06:00:29.999Z,0
2017-01-17T06:01:10.534Z,0
2017-01-17T06:01:51.064Z,0
2017-01-17T06:02:31.595Z,0
2017-01-17T06:03:12.118Z,0
2017-01-17T06:03:52.654Z,0
2017-01-17T06:04:33.172Z,0
2017-01-17T06:05:13.698Z,0
2017-01-17T06:05:54.228Z,0
2017-01-17T06:06:34.756Z,0
2017-01-17T06:07:15.287Z,0
2017-01-17T06:07:55.818Z,0
2017-01-17T06:08:36.340Z,0
2017-01-17T06:09:16.868Z,0
2017-01-17T06:09:57.404Z,0
2017-01-17T06:10:37.946Z,0
2017-01-17T06:11:18.477Z,0
2017-01-17T06:11:58.990Z,0
2017-01-17T06:12:39.518Z,0
2017-01-17T06:13:20.056Z,0
2017-01-17T06:14:00.577Z,0
2017-01-17T06:14:41.112Z,0
2017-01-17T06:15:21.641Z,0
2017-01-17T06:16:02.170Z,0
2017-01-17T06:16:42.708Z,0
2017-01-17T06:17:23.231Z,0
2017-01-17T06:18:03.755Z,0
2017-01-17T06:18:44.271Z,0
2017-01-17T06:19:24.787Z,0
2017-01-17T06:20:05.332Z,0
2017-01-17T06:20:45.845Z,0
2017-01-17T06:21:26.371Z,0
2017-01-17T06:22:06.905Z,0
2017-01-17T06:22:47.428Z,0
2017-01-17T06:23:27.960Z,0
2017-01-17T06:24:08.489Z,0
2017-01-17T06:24:49.015Z,0
2017-01-17T06:25:29.545Z,0
2017-01-17T06:26:10.078Z,0
2017-01-17T06:26:50.591Z,0
2017-01-17T06:27:31.123Z,0
2017-01-17T06:28:11.654Z,0
2017-01-17T06:28:52.179Z,0
2017-01-17T06:29:32.707Z,0
2017-01-17T06:30:13.230Z,0
2017-01-17T06:30:53.762Z,0
2017-01-17T06:31:34.287Z,0
2017-01-17T06:32:14.826Z,0
2017-01-17T06:32:55.354Z,0
2017-01-17T06:33:35.877Z,0
2017-01-17T06:34:16.415Z,0
2017-01-17T06:34:56.949Z,0
2017-01-17T06:35:37.484Z,0
2017-01-17T06:36:18.015Z,0
2017-01-17T06:36:58.540Z,0
2017-01-17T06:37:39.073Z,0
2017-01-17T06:38:19.607Z,0
2017-01-17T06:39:00.136Z,0
2017-01-17T06:39:40.666Z,0
2017-01-17T06:40:21.237Z,0
2017-01-17T06:41:01.766Z,0
2017-01-17T06:41:42.280Z,0
2017-01-17T06:42:22.812Z,0
2017-01-17T06:43:03.338Z,0
2017-01-17T06:43:43.860Z,0
2017-01-17T06:44:24.387Z,0
2017-01-17T06:45:04.932Z,0
2017-01-17T06:45:45.457Z,0
2017-01-17T06:46:25.975Z,0
2017-01-17T06:47:06.510Z,0
2017-01-17T06:47:47.042Z,0
2017-01-17T06:48:27.668Z,0
2017-01-17T06:49:08.173Z,0
2017-01-17T06:49:48.702Z,0
2017-01-17T06:50:29.235Z,0
2017-01-17T06:51:09.767Z,0
2017-01-17T06:51:50.301Z,0
2017-01-17T06:52:30.826Z,0
2017-01-17T06:53:11.399Z,0
2017-01-17T06:53:51.910Z,0
2017-01-17T06:54:32.441Z,4
2017-01-17T06:55:12.975Z,4
2017-01-17T06:55:53.501Z,4
2017-01-17T06:56:34.043Z,0
2017-01-17T06:57:14.599Z,0
2017-01-17T06:57:55.129Z,4
2017-01-17T06:58:35.659Z,4
2017-01-17T06:59:16.183Z,0
2017-01-17T06:59:56.711Z,4
2017-01-17T07:00:37.240Z,8
2017-01-17T07:01:17.788Z,4
2017-01-17T07:01:58.303Z,4
2017-01-17T07:02:38.872Z,8
2017-01-17T07:03:19.361Z,8
2017-01-17T07:03:59.897Z,8
2017-01-17T07:04:40.421Z,8
2017-01-17T07:05:20.963Z,8
2017-01-17T07:06:01.482Z,8
2017-01-17T07:06:42.017Z,12
2017-01-17T07:07:22.540Z,8
2017-01-17T07:08:03.065Z,12
2017-01-17T07:08:43.596Z,12
2017-01-17T07:09:24.124Z,12
2017-01-17T07:10:04.656Z,16
2017-01-17T07:10:45.188Z,12
2017-01-17T07:11:25.715Z,16
2017-01-17T07:12:06.247Z,16
2017-01-17T07:12:46.778Z,16
2017-01-17T07:13:27.307Z,20
2017-01-17T07:14:07.821Z,20
2017-01-17T07:14:48.353Z,20
2017-01-17T07:15:28.884Z,24
2017-01-17T07:16:09.419Z,28
2017-01-17T07:16:49.941Z,32
2017-01-17T07:17:30.477Z,36
2017-01-17T07:18:11.006Z,36
2017-01-17T07:18:51.545Z,40
2017-01-17T07:19:32.063Z,40
2017-01-17T07:20:12.590Z,48
2017-01-17T07:20:53.118Z,48
2017-01-17T07:21:33.648Z,52
2017-01-17T07:22:14.182Z,56
2017-01-17T07:22:54.712Z,60
2017-01-17T07:23:35.241Z,60
2017-01-17T07:24:15.776Z,64
2017-01-17T07:24:56.336Z,72
2017-01-17T07:25:36.859Z,72
2017-01-17T07:26:17.394Z,80
2017-01-17T07:26:57.921Z,88
2017-01-17T07:27:38.463Z,96
2017-01-17T07:28:18.988Z,104
2017-01-17T07:28:59.525Z,112
2017-01-17T07:29:40.065Z,120
2017-01-17T07:30:20.596Z,128
2017-01-17T07:31:01.122Z,136
2017-01-17T07:31:41.657Z,140
2017-01-17T07:32:22.184Z,152
2017-01-17T07:33:02.714Z,160
2017-01-17T07:33:43.261Z,168
2017-01-17T07:34:23.793Z,180
2017-01-17T07:35:04.373Z,184
2017-01-17T07:35:44.908Z,192
2017-01-17T07:36:25.441Z,200
2017-01-17T07:37:05.975Z,208
2017-01-17T07:37:46.504Z,216
2017-01-17T07:38:27.037Z,228
2017-01-17T07:39:07.572Z,236
2017-01-17T07:39:48.110Z,240
2017-01-17T07:40:28.646Z,252
2017-01-17T07:41:09.177Z,260
2017-01-17T07:41:49.705Z,268
2017-01-17T07:42:30.236Z,276
2017-01-17T07:43:10.770Z,288
2017-01-17T07:43:51.304Z,296
2017-01-17T07:44:31.836Z,304
2017-01-17T07:45:12.378Z,316
2017-01-17T07:45:52.930Z,324
2017-01-17T07:46:33.464Z,336
2017-01-17T07:47:14.019Z,344
2017-01-17T07:47:54.525Z,356
2017-01-17T07:48:35.051Z,368
2017-01-17T07:49:15.569Z,388
2017-01-17T07:49:56.103Z,400
2017-01-17T07:50:36.636Z,408
2017-01-17T07:51:17.169Z,420
2017-01-17T07:51:57.700Z,432
2017-01-17T07:52:38.232Z,444
2017-01-17T07:53:18.762Z,456
2017-01-17T07:53:59.281Z,468
2017-01-17T07:54:39.819Z,476
2017-01-17T07:55:20.355Z,488
2017-01-17T07:56:00.886Z,496
2017-01-17T07:56:41.414Z,508
2017-01-17T07:57:21.946Z,520
2017-01-17T07:58:02.475Z,528
2017-01-17T07:58:43.005Z,536
2017-01-17T07:59:23.539Z,548
2017-01-17T08:00:04.065Z,560
2017-01-17T08:00:44.603Z,572
2017-01-17T08:01:25.144Z,576
2017-01-17T08:02:05.682Z,584
2017-01-17T08:02:46.211Z,592
2017-01-17T08:03:26.741Z,604
2017-01-17T08:04:07.270Z,612
2017-01-17T08:04:47.806Z,624
2017-01-17T08:05:28.337Z,636
2017-01-17T08:06:08.866Z,648
2017-01-17T08:06:49.402Z,656
2017-01-17T08:07:29.941Z,668
2017-01-17T08:08:10.472Z,684
2017-01-17T08:08:51.017Z,696
2017-01-17T08:09:31.538Z,712
2017-01-17T08:10:12.072Z,728
2017-01-17T08:10:52.602Z,744
2017-01-17T08:11:33.128Z,760
2017-01-17T08:12:13.931Z,772
2017-01-17T08:12:54.772Z,792
2017-01-17T08:13:35.666Z,804
2017-01-17T08:14:16.852Z,820
2017-01-17T08:14:57.723Z,828
2017-01-17T08:15:38.845Z,840
2017-01-17T08:16:20.209Z,852
2017-01-17T08:17:01.048Z,856
2017-01-17T08:17:42.225Z,860
2017-01-17T08:18:23.427Z,868
2017-01-17T08:19:04.244Z,880
2017-01-17T08:19:45.383Z,888
2017-01-17T08:20:26.085Z,892
2017-01-17T08:21:06.740Z,900
2017-01-17T08:21:47.282Z,904
2017-01-17T08:22:27.825Z,912
2017-01-17T08:23:08.351Z,924
2017-01-17T08:23:48.881Z,936
2017-01-17T08:24:29.404Z,948
2017-01-17T08:25:09.942Z,960
2017-01-17T08:25:50.464Z,972
2017-01-17T08:26:30.987Z,980
2017-01-17T08:27:11.508Z,988
2017-01-17T08:27:52.039Z,996
2017-01-17T08:28:32.583Z,1000
2017-01-17T08:29:13.118Z,1012
2017-01-17T08:29:53.650Z,1020
2017-01-17T08:30:34.179Z,1024
2017-01-17T08:31:14.708Z,1032
2017-01-17T08:31:55.235Z,1040
2017-01-17T08:32:35.772Z,1048
2017-01-17T08:33:16.302Z,1056
2017-01-17T08:33:56.831Z,1064
2017-01-17T08:34:37.355Z,1080
2017-01-17T08:35:17.887Z,1092
2017-01-17T08:35:58.422Z,1104
2017-01-17T08:36:38.953Z,1120
2017-01-17T08:37:19.484Z,1140
2017-01-17T08:38:00.007Z,1164
2017-01-17T08:38:40.539Z,1196
2017-01-17T08:39:21.054Z,1232
2017-01-17T08:40:01.568Z,1272
2017-01-17T08:40:42.099Z,1300
2017-01-17T08:41:22.635Z,1328
2017-01-17T08:42:03.162Z,1344
2017-01-17T08:42:43.702Z,1368
2017-01-17T08:43:24.237Z,1376
2017-01-17T08:44:04.769Z,1360
2017-01-17T08:44:45.293Z,1340
2017-01-17T08:45:25.818Z,1328
2017-01-17T08:46:06.358Z,1324
2017-01-17T08:46:46.889Z,1324
2017-01-17T08:47:27.423Z,1328
2017-01-17T08:48:07.956Z,1324
2017-01-17T08:48:48.495Z,1324
2017-01-17T08:49:29.021Z,1328
2017-01-17T08:50:09.565Z,1340
2017-01-17T08:50:50.082Z,1356
2017-01-17T08:51:30.610Z,1372
2017-01-17T08:52:11.143Z,1388
2017-01-17T08:52:51.680Z,1408
2017-01-17T08:53:32.213Z,1428
2017-01-17T08:54:12.755Z,1464
2017-01-17T08:54:53.279Z,1504
2017-01-17T08:55:33.811Z,1556
2017-01-17T08:56:14.349Z,1596
2017-01-17T08:56:54.866Z,1636
2017-01-17T08:57:35.398Z,1680
2017-01-17T08:58:15.935Z,1732
2017-01-17T08:58:56.464Z,1788
2017-01-17T08:59:36.994Z,1880
2017-01-17T09:00:17.517Z,2032
2017-01-17T09:00:58.045Z,2312
2017-01-17T09:01:38.581Z,2488
2017-01-17T09:02:19.108Z,2688
2017-01-17T09:02:59.653Z,3108
2017-01-17T09:03:40.190Z,2896
2017-01-17T09:04:20.718Z,2448
2017-01-17T09:05:01.253Z,2624
2017-01-17T09:05:41.777Z,3976
2017-01-17T09:06:22.305Z,2596
2017-01-17T09:07:02.868Z,2576
2017-01-17T09:07:43.406Z,2080
2017-01-17T09:08:23.940Z,1992
2017-01-17T09:09:04.474Z,2228
2017-01-17T09:09:45.004Z,2760
2017-01-17T09:10:25.538Z,2560
2017-01-17T09:11:06.084Z,2300
2017-01-17T09:11:46.599Z,2492
2017-01-17T09:12:27.128Z,2668
2017-01-17T09:13:07.679Z,2960
2017-01-17T09:13:48.205Z,2824
2017-01-17T09:14:28.741Z,3040
2017-01-17T09:15:09.275Z,3020
2017-01-17T09:15:49.819Z,3476
2017-01-17T09:16:30.362Z,4080
2017-01-17T09:17:10.897Z,4588
2017-01-17T09:17:51.428Z,4712
2017-01-17T09:18:31.965Z,6340
2017-01-17T09:19:12.492Z,3712
2017-01-17T09:19:53.022Z,3560
2017-01-17T09:20:33.557Z,3724
2017-01-17T09:21:14.100Z,3776
2017-01-17T09:21:54.631Z,3856
2017-01-17T09:22:35.163Z,3676
2017-01-17T09:23:15.702Z,3396
2017-01-17T09:23:56.240Z,3120
2017-01-17T09:24:36.773Z,3000
2017-01-17T09:25:17.310Z,2852
2017-01-17T09:25:57.853Z,2660
2017-01-17T09:26:38.385Z,2628
2017-01-17T09:27:18.915Z,2692
2017-01-17T09:27:59.442Z,2520
2017-01-17T09:28:39.977Z,2580
2017-01-17T09:29:20.514Z,2596
2017-01-17T09:30:01.046Z,2632
2017-01-17T09:30:41.573Z,2708
2017-01-17T09:31:22.107Z,2860
2017-01-17T09:32:02.634Z,2872
2017-01-17T09:32:43.177Z,3104
2017-01-17T09:33:23.769Z,3400
2017-01-17T09:34:04.320Z,3688
2017-01-17T09:34:44.858Z,3640
2017-01-17T09:35:25.390Z,3344
2017-01-17T09:36:05.928Z,3272
2017-01-17T09:36:46.464Z,3320
2017-01-17T09:37:26.995Z,3192
2017-01-17T09:38:07.533Z,3092
2017-01-17T09:38:48.063Z,3024
2017-01-17T09:39:28.605Z,2980
2017-01-17T09:40:09.138Z,2928
2017-01-17T09:40:49.682Z,3084
2017-01-17T09:41:30.222Z,3248
2017-01-17T09:42:10.753Z,3576
2017-01-17T09:42:51.287Z,4020
2017-01-17T09:43:31.817Z,4108
2017-01-17T09:44:12.344Z,4108
2017-01-17T09:44:52.884Z,3432
2017-01-17T09:45:33.423Z,2920
2017-01-17T09:46:13.954Z,2852
2017-01-17T09:46:54.500Z,3056
2017-01-17T09:47:35.025Z,3392
2017-01-17T09:48:15.554Z,4188
2017-01-17T09:48:56.087Z,3964
2017-01-17T09:49:36.626Z,4216
2017-01-17T09:50:17.167Z,4440
2017-01-17T09:50:57.704Z,4364
2017-01-17T09:51:38.233Z,4204
2017-01-17T09:52:18.764Z,3980
2017-01-17T09:52:59.297Z,3756
2017-01-17T09:53:39.829Z,3588
2017-01-17T09:54:20.377Z,3476
2017-01-17T09:55:00.909Z,3412
2017-01-17T09:55:41.444Z,3420
2017-01-17T09:56:21.973Z,3348
2017-01-17T09:57:02.503Z,3328
2017-01-17T09:57:43.046Z,3296
2017-01-17T09:58:23.580Z,3384
2017-01-17T09:59:04.112Z,3380
2017-01-17T09:59:44.641Z,3396
2017-01-17T10:00:25.190Z,3348
2017-01-17T10:01:05.709Z,3344
2017-01-17T10:01:46.248Z,3236
2017-01-17T10:02:26.781Z,3240
2017-01-17T10:03:07.314Z,3200
2017-01-17T10:03:47.845Z,3176
2017-01-17T10:04:28.381Z,3104
2017-01-17T10:05:08.915Z,3056
2017-01-17T10:05:49.450Z,3136
2017-01-17T10:06:29.978Z,3012
2017-01-17T10:07:10.518Z,3024
2017-01-17T10:07:51.048Z,3132
2017-01-17T10:08:31.581Z,3092
2017-01-17T10:09:12.163Z,2988
2017-01-17T10:09:52.638Z,2932
2017-01-17T10:10:33.168Z,2780
2017-01-17T10:11:13.697Z,2792
2017-01-17T10:11:54.230Z,2888
2017-01-17T10:12:34.759Z,2900
2017-01-17T10:13:15.295Z,3072
2017-01-17T10:13:55.830Z,3096
2017-01-17T10:14:36.369Z,3172
2017-01-17T10:15:16.901Z,3248
2017-01-17T10:15:57.433Z,3256
2017-01-17T10:16:37.960Z,3224
2017-01-17T10:17:18.494Z,3272
2017-01-17T10:17:59.035Z,3212
2017-01-17T10:18:39.569Z,3212
2017-01-17T10:19:20.105Z,3148
2017-01-17T10:20:00.642Z,2984
2017-01-17T10:20:41.173Z,2972
2017-01-17T10:21:21.710Z,3104
2017-01-17T10:22:02.236Z,2984
2017-01-17T10:22:42.773Z,2832
2017-01-17T10:23:23.304Z,2688
2017-01-17T10:24:03.839Z,2760
2017-01-17T10:24:44.373Z,2716
2017-01-17T10:25:24.909Z,2644
2017-01-17T10:26:05.465Z,2656
2017-01-17T10:26:46.000Z,2440
2017-01-17T10:27:26.532Z,2356
2017-01-17T10:28:07.062Z,2420
2017-01-17T10:28:47.588Z,2500